Minsk, Belarus
Current Conditions -  °F | °C
As of 2:00 PM on Saturday 25 Oct 2014 (Local Time) from UMMM Reporting Station
Clear Clear  
Wind Chill: -3°   Ceiling: Unl
Heat Index:   Visibility: 6mi
Dew Point: -9°   Wind: 9mph
Humidity: 48%   Direction: 140°SE
Pressure: 30.53"   Gusts: NA
Location:  53.91°N, 27.55°E
Report Text: UMMM 251200Z 14004MPS CAVOK 01/M09 Q1034 R12/CLRD60 NOSIG RMKQFE755
Loading
Personal Weather Stations






























Interactive Weather Map
Tropical Storm Tracking
New forecast layout! Learn more

10-Day Weather Forecast

Advertisements
Track Severe Weather on mobile